createdAt,value
2018-08-10T00:00:31.023Z,16.10
2018-08-10T00:02:59.389Z,16.10
2018-08-10T00:05:27.390Z,16.10
2018-08-10T00:07:55.365Z,16.10
2018-08-10T00:10:23.250Z,16.20
2018-08-10T00:12:51.141Z,16.20
2018-08-10T00:15:19.127Z,16.20
2018-08-10T00:17:47.189Z,16.30
2018-08-10T00:20:15.958Z,16.30
2018-08-10T00:22:44.615Z,16.30
2018-08-10T00:25:17.118Z,16.30
2018-08-10T00:27:45.115Z,16.30
2018-08-10T00:30:15.776Z,16.30
2018-08-10T00:32:45.187Z,16.30
2018-08-10T00:35:13.156Z,16.30
2018-08-10T00:37:42.046Z,16.30
2018-08-10T00:40:13.487Z,16.30
2018-08-10T00:42:41.562Z,16.30
2018-08-10T00:45:10.747Z,16.20
2018-08-10T00:47:38.781Z,16.20
2018-08-10T00:50:08.097Z,16.20
2018-08-10T00:52:36.138Z,16.10
2018-08-10T00:55:05.824Z,16.10
2018-08-10T00:57:33.939Z,16.10
2018-08-10T01:00:02.350Z,16.10
2018-08-10T01:02:30.486Z,16.10
2018-08-10T01:04:58.426Z,16.10
2018-08-10T01:07:26.375Z,16.10
2018-08-10T01:09:54.362Z,16.10
2018-08-10T01:12:22.326Z,16.10
2018-08-10T01:14:50.249Z,16.00
2018-08-10T01:17:18.216Z,16.00
2018-08-10T01:19:46.217Z,16.00
2018-08-10T01:22:14.251Z,16.00
2018-08-10T01:24:42.161Z,15.90
2018-08-10T01:27:15.797Z,16.00
2018-08-10T01:29:44.446Z,16.00
2018-08-10T01:32:12.471Z,16.00
2018-08-10T01:34:40.442Z,16.00
2018-08-10T01:37:08.462Z,16.00
2018-08-10T01:39:36.442Z,16.00
2018-08-10T01:42:04.438Z,15.90
2018-08-10T01:44:32.309Z,15.80
2018-08-10T01:47:00.286Z,15.70
2018-08-10T01:49:28.197Z,15.60
2018-08-10T01:51:56.181Z,15.50
2018-08-10T01:54:24.165Z,15.40
2018-08-10T01:56:52.185Z,15.40
2018-08-10T01:59:20.139Z,15.30
2018-08-10T02:01:48.142Z,15.30
2018-08-10T02:04:16.058Z,15.20
2018-08-10T02:06:44.052Z,15.10
2018-08-10T02:09:12.068Z,15.10
2018-08-10T02:11:39.994Z,15.00
2018-08-10T02:14:08.068Z,15.00
2018-08-10T02:16:36.062Z,15.00
2018-08-10T02:19:04.148Z,15.00
2018-08-10T02:21:32.050Z,14.90
2018-08-10T02:24:00.063Z,14.90
2018-08-10T02:26:27.994Z,14.80
2018-08-10T02:28:56.015Z,14.80
2018-08-10T02:31:23.988Z,14.80
2018-08-10T02:33:52.017Z,14.80
2018-08-10T02:36:20.012Z,14.70
2018-08-10T02:38:48.031Z,14.80
2018-08-10T02:41:16.027Z,14.70
2018-08-10T02:43:44.037Z,14.70
2018-08-10T02:46:12.017Z,14.70
2018-08-10T02:48:39.978Z,14.60
2018-08-10T02:51:08.014Z,14.60
2018-08-10T02:53:35.849Z,14.60
2018-08-10T02:56:03.831Z,14.50
2018-08-10T02:58:31.776Z,14.50
2018-08-10T03:00:59.783Z,14.50
2018-08-10T03:03:27.788Z,14.50
2018-08-10T03:05:55.741Z,14.40
2018-08-10T03:08:23.769Z,14.40
2018-08-10T03:10:51.653Z,14.40
2018-08-10T03:13:19.566Z,14.30
2018-08-10T03:15:47.481Z,14.30
2018-08-10T03:18:15.401Z,14.30
2018-08-10T03:20:43.300Z,14.20
2018-08-10T03:23:11.278Z,14.20
2018-08-10T03:25:39.359Z,14.20
2018-08-10T03:28:07.300Z,14.10
2018-08-10T03:30:35.420Z,14.10
2018-08-10T03:33:03.437Z,14.10
2018-08-10T03:35:31.418Z,14.10
2018-08-10T03:37:59.284Z,14.00
2018-08-10T03:40:27.297Z,14.00
2018-08-10T03:42:55.265Z,14.00
2018-08-10T03:45:23.293Z,13.90
2018-08-10T03:47:51.259Z,13.90
2018-08-10T03:50:19.226Z,13.90
2018-08-10T03:52:47.258Z,13.90
2018-08-10T03:55:15.262Z,13.90
2018-08-10T03:57:43.220Z,13.90
2018-08-10T04:00:13.170Z,13.90
2018-08-10T04:02:41.532Z,13.90
2018-08-10T04:05:10.737Z,13.90
2018-08-10T04:07:38.845Z,13.90
2018-08-10T04:10:07.966Z,13.80
2018-08-10T04:12:36.439Z,13.80
2018-08-10T04:15:06.714Z,13.80
2018-08-10T04:17:34.680Z,13.80
2018-08-10T04:20:02.718Z,13.80
2018-08-10T04:22:30.662Z,13.90
2018-08-10T04:24:58.593Z,13.90
2018-08-10T04:27:26.667Z,13.90
2018-08-10T04:29:54.622Z,13.90
2018-08-10T04:32:22.678Z,13.90
2018-08-10T04:34:50.661Z,13.90
2018-08-10T04:37:18.929Z,13.90
2018-08-10T04:39:46.973Z,13.90
2018-08-10T04:42:14.970Z,13.90
2018-08-10T04:44:42.941Z,14.00
2018-08-10T04:47:10.940Z,14.00
2018-08-10T04:49:39.008Z,14.00
2018-08-10T04:52:07.221Z,14.10
2018-08-10T04:54:35.281Z,14.10
2018-08-10T04:57:03.316Z,14.10
2018-08-10T04:59:31.221Z,14.20
2018-08-10T05:01:59.233Z,14.20
2018-08-10T05:04:27.170Z,14.20
2018-08-10T05:06:55.083Z,14.20
2018-08-10T05:09:23.037Z,14.30
2018-08-10T05:11:50.990Z,14.40
2018-08-10T05:14:18.961Z,14.40
2018-08-10T05:16:46.922Z,14.50
2018-08-10T05:19:14.913Z,14.50
2018-08-10T05:21:42.850Z,14.50
2018-08-10T05:24:10.793Z,14.50
2018-08-10T05:26:39.050Z,14.60
2018-08-10T05:29:07.056Z,14.60
2018-08-10T05:31:34.996Z,14.70
2018-08-10T05:34:03.041Z,14.70
2018-08-10T05:36:31.238Z,14.80
2018-08-10T05:38:59.297Z,14.90
2018-08-10T05:41:27.314Z,14.90
2018-08-10T05:43:55.402Z,15.00
2018-08-10T05:46:23.404Z,15.00
2018-08-10T05:48:51.274Z,15.10
2018-08-10T05:51:19.228Z,15.10
2018-08-10T05:53:47.177Z,15.10
2018-08-10T05:56:15.147Z,15.20
2018-08-10T05:58:43.099Z,15.20
2018-08-10T06:01:11.119Z,15.40
2018-08-10T06:03:39.251Z,15.50
2018-08-10T06:06:07.118Z,15.60
2018-08-10T06:08:35.074Z,15.70
2018-08-10T06:11:03.039Z,15.80
2018-08-10T06:13:31.073Z,15.90
2018-08-10T06:15:58.993Z,16.10
2018-08-10T06:18:26.937Z,16.30
2018-08-10T06:20:54.898Z,16.60
2018-08-10T06:23:22.948Z,16.80
2018-08-10T06:25:50.984Z,16.90
2018-08-10T06:28:19.028Z,17.00
2018-08-10T06:30:47.445Z,17.10
2018-08-10T06:33:15.374Z,17.20
2018-08-10T06:35:43.315Z,17.40
2018-08-10T06:38:11.302Z,17.50
2018-08-10T06:40:39.223Z,17.60
2018-08-10T06:43:07.255Z,17.70
2018-08-10T06:45:35.200Z,17.80
2018-08-10T06:48:03.239Z,17.80
2018-08-10T06:50:31.147Z,17.70
2018-08-10T06:52:59.112Z,17.60
2018-08-10T06:55:27.067Z,17.80
2018-08-10T06:57:55.029Z,18.10
2018-08-10T07:00:23.047Z,18.00
2018-08-10T07:02:50.995Z,17.80
2018-08-10T07:05:18.940Z,17.60
2018-08-10T07:07:47.338Z,17.50
2018-08-10T07:10:15.330Z,17.50
2018-08-10T07:12:43.226Z,17.30
2018-08-10T07:15:11.547Z,17.40
2018-08-10T07:17:39.532Z,17.40
2018-08-10T07:20:07.732Z,18.20
2018-08-10T07:22:35.624Z,17.50
2018-08-10T07:25:06.008Z,17.50
2018-08-10T07:27:34.311Z,17.60
2018-08-10T07:30:02.447Z,17.80
2018-08-10T07:32:30.471Z,18.00
2018-08-10T07:34:58.464Z,18.10
2018-08-10T07:37:26.435Z,18.10
2018-08-10T07:39:54.373Z,18.10
2018-08-10T07:42:22.310Z,18.10
2018-08-10T07:44:50.227Z,18.30
2018-08-10T07:47:18.230Z,18.40
2018-08-10T07:49:46.198Z,18.90
2018-08-10T07:54:41.902Z,21.50
2018-08-10T07:57:09.822Z,22.80
2018-08-10T07:59:37.684Z,23.10
2018-08-10T08:02:05.697Z,24.40
2018-08-10T08:04:33.605Z,25.30
2018-08-10T08:07:01.688Z,26.30
2018-08-10T08:09:29.511Z,27.40
2018-08-10T08:11:57.549Z,27.50
2018-08-10T08:14:25.497Z,26.70
2018-08-10T08:16:53.478Z,26.20
2018-08-10T08:19:21.513Z,26.00
2018-08-10T08:22:06.465Z,27.30
2018-08-10T08:24:34.501Z,28.50
2018-08-10T08:27:02.513Z,28.60
2018-08-10T08:29:30.550Z,28.40
2018-08-10T08:31:58.553Z,28.00
2018-08-10T08:34:26.527Z,28.30
2018-08-10T08:36:54.245Z,27.70
2018-08-10T08:40:28.684Z,28.20
2018-08-10T08:42:56.445Z,28.90
2018-08-10T08:46:12.158Z,28.30
2018-08-10T08:48:43.368Z,28.70
2018-08-10T08:51:15.183Z,28.50
2018-08-10T08:53:42.929Z,29.30
2018-08-10T08:56:13.324Z,30.30
2018-08-10T08:58:41.893Z,30.30
2018-08-10T09:01:10.308Z,29.80
2018-08-10T09:04:25.084Z,30.20
2018-08-10T09:06:52.751Z,31.70
2018-08-10T09:09:31.892Z,32.80
2018-08-10T09:11:59.556Z,32.30
2018-08-10T09:14:43.457Z,31.90
2018-08-10T09:17:11.410Z,31.40
2018-08-10T09:19:39.870Z,31.00
2018-08-10T09:22:07.628Z,30.90
2018-08-10T09:24:35.339Z,29.90
2018-08-10T09:27:03.198Z,28.50
2018-08-10T09:29:31.765Z,27.20
2018-08-10T09:31:59.488Z,26.10
2018-08-10T09:34:27.963Z,25.60
2018-08-10T09:36:55.787Z,25.00
2018-08-10T09:39:23.523Z,24.70
2018-08-10T09:41:51.232Z,24.20
2018-08-10T09:44:18.958Z,23.60
2018-08-10T09:46:46.655Z,24.40
2018-08-10T09:49:14.409Z,26.30
2018-08-10T09:51:42.159Z,28.20
2018-08-10T09:54:09.787Z,28.60
2018-08-10T09:56:37.457Z,28.80
2018-08-10T09:59:05.116Z,28.50
2018-08-10T10:02:36.079Z,29.20
2018-08-10T10:05:03.844Z,30.40
2018-08-10T10:08:05.653Z,31.70
2018-08-10T10:10:33.322Z,32.90
2018-08-10T10:13:01.004Z,33.30
2018-08-10T10:15:28.724Z,33.40
2018-08-10T10:17:56.462Z,33.80
2018-08-10T10:20:24.184Z,33.70
2018-08-10T10:22:52.103Z,33.90
2018-08-10T10:25:19.825Z,33.50
2018-08-10T10:27:47.482Z,33.00
2018-08-10T10:30:15.283Z,31.80
2018-08-10T10:32:43.245Z,30.90
2018-08-10T10:35:10.941Z,30.50
2018-08-10T10:37:38.857Z,30.60
2018-08-10T10:40:08.211Z,31.10
2018-08-10T10:42:35.924Z,30.20
2018-08-10T10:45:04.940Z,29.30
2018-08-10T10:47:32.593Z,28.60
2018-08-10T10:50:00.262Z,28.40
2018-08-10T10:52:27.901Z,29.30
2018-08-10T10:54:55.571Z,30.30
2018-08-10T10:57:23.321Z,30.80
2018-08-10T10:59:50.971Z,30.50
2018-08-10T11:02:18.663Z,29.80
2018-08-10T11:04:46.358Z,29.20
2018-08-10T11:07:14.089Z,28.90
2018-08-10T11:09:41.776Z,28.20
2018-08-10T11:12:09.737Z,28.20
2018-08-10T11:14:37.515Z,28.10
2018-08-10T11:17:05.321Z,28.40
2018-08-10T11:19:33.004Z,29.40
2018-08-10T11:22:00.750Z,30.30
2018-08-10T11:24:28.411Z,31.10
2018-08-10T11:26:56.083Z,31.90
2018-08-10T11:29:23.908Z,32.10
2018-08-10T11:31:51.936Z,32.20
2018-08-10T11:34:19.593Z,32.20
2018-08-10T11:37:08.073Z,32.00
2018-08-10T11:39:35.812Z,31.70
2018-08-10T11:42:03.530Z,31.40
2018-08-10T11:44:31.436Z,31.40
2018-08-10T11:46:59.106Z,30.60
2018-08-10T11:49:26.828Z,30.10
2018-08-10T11:51:54.555Z,29.90
2018-08-10T11:54:22.271Z,29.90
2018-08-10T11:56:50.021Z,30.10
2018-08-10T11:59:17.715Z,29.80
2018-08-10T12:01:45.444Z,29.70
2018-08-10T12:04:13.069Z,29.90
2018-08-10T12:06:40.749Z,29.30
2018-08-10T12:09:10.341Z,28.40
2018-08-10T12:11:38.716Z,27.90
2018-08-10T12:14:06.421Z,27.70
2018-08-10T12:16:34.090Z,27.30
2018-08-10T12:19:01.743Z,26.60
2018-08-10T12:21:29.600Z,26.40
2018-08-10T12:23:57.275Z,26.00
2018-08-10T12:26:24.925Z,25.50
2018-08-10T12:28:52.571Z,25.10
2018-08-10T12:31:23.525Z,24.70
2018-08-10T12:33:51.408Z,24.70
2018-08-10T12:36:19.109Z,24.60
2018-08-10T12:38:46.891Z,24.80
2018-08-10T12:41:14.547Z,24.70
2018-08-10T12:43:42.235Z,24.50
2018-08-10T12:46:10.797Z,24.40
2018-08-10T12:48:38.457Z,24.60
2018-08-10T12:51:06.802Z,25.00
2018-08-10T12:53:34.493Z,25.30
2018-08-10T12:56:02.410Z,25.30
2018-08-10T12:58:30.277Z,25.10
2018-08-10T13:00:58.039Z,24.70
2018-08-10T13:03:25.719Z,24.70
2018-08-10T13:05:53.416Z,24.70
2018-08-10T13:08:21.232Z,24.70
2018-08-10T13:10:48.913Z,24.80
2018-08-10T13:13:16.594Z,24.90
2018-08-10T13:15:44.241Z,24.80
2018-08-10T13:18:11.976Z,24.50
2018-08-10T13:20:39.624Z,24.30
2018-08-10T13:23:07.258Z,24.30
2018-08-10T13:25:34.965Z,24.40
2018-08-10T13:28:02.650Z,24.60
2018-08-10T13:30:30.362Z,24.60
2018-08-10T13:33:03.656Z,24.50
2018-08-10T13:35:31.439Z,24.30
2018-08-10T13:37:59.271Z,24.20
2018-08-10T13:40:27.078Z,24.40
2018-08-10T13:42:54.858Z,24.60
2018-08-10T13:45:22.593Z,24.80
2018-08-10T13:47:50.287Z,24.80
2018-08-10T13:50:18.124Z,24.70
2018-08-10T13:52:46.099Z,24.70
2018-08-10T13:55:19.046Z,24.40
2018-08-10T13:57:47.867Z,24.20
2018-08-10T14:00:23.028Z,24.20
2018-08-10T14:02:52.430Z,24.20
2018-08-10T14:05:20.833Z,23.90
2018-08-10T14:07:48.653Z,23.60
2018-08-10T14:10:16.416Z,23.40
2018-08-10T14:12:44.181Z,23.30
2018-08-10T14:15:12.487Z,23.40
2018-08-10T14:17:40.268Z,23.50
2018-08-10T14:20:08.810Z,23.70
2018-08-10T14:22:36.549Z,24.10
2018-08-10T14:25:04.949Z,24.50
2018-08-10T14:27:32.710Z,24.90
2018-08-10T14:30:00.551Z,25.00
2018-08-10T14:32:28.120Z,24.80
2018-08-10T14:34:55.850Z,24.70
2018-08-10T14:37:26.839Z,24.60
2018-08-10T14:39:54.504Z,24.70
2018-08-10T14:42:22.411Z,24.60
2018-08-10T14:44:50.071Z,24.60
2018-08-10T14:47:17.869Z,24.80
2018-08-10T14:49:45.450Z,24.90
2018-08-10T14:52:13.112Z,25.00
2018-08-10T14:54:40.799Z,25.00
2018-08-10T14:57:08.479Z,24.80
2018-08-10T14:59:36.206Z,24.50
2018-08-10T15:02:04.108Z,24.40
2018-08-10T15:04:31.834Z,24.50
2018-08-10T15:06:59.500Z,24.70
2018-08-10T15:09:27.182Z,24.70
2018-08-10T15:11:54.959Z,24.70
2018-08-10T15:14:22.593Z,24.70
2018-08-10T15:16:50.292Z,24.70
2018-08-10T15:19:17.940Z,24.60
2018-08-10T15:21:45.644Z,24.50
2018-08-10T15:24:13.507Z,24.40
2018-08-10T15:26:41.393Z,24.40
2018-08-10T15:29:09.332Z,24.30
2018-08-10T15:31:37.097Z,24.20
2018-08-10T15:34:04.841Z,24.20
2018-08-10T15:36:32.469Z,24.30
2018-08-10T15:41:58.534Z,24.50
2018-08-10T15:44:26.330Z,24.50
2018-08-10T15:46:53.993Z,24.50
2018-08-10T15:49:21.664Z,24.50
2018-08-10T15:51:49.361Z,24.50
2018-08-10T15:54:17.080Z,24.30
2018-08-10T15:56:44.976Z,24.20
2018-08-10T15:59:12.750Z,24.30
2018-08-10T16:01:40.475Z,24.20
2018-08-10T16:04:08.134Z,24.30
2018-08-10T16:06:35.834Z,24.20
2018-08-10T16:09:05.804Z,24.20
2018-08-10T16:11:33.469Z,24.10
2018-08-10T16:14:02.307Z,23.90
2018-08-10T16:16:30.071Z,24.00
2018-08-10T16:18:57.786Z,24.10
2018-08-10T16:21:25.489Z,24.10
2018-08-10T16:23:53.225Z,24.10
2018-08-10T16:26:20.904Z,23.80
2018-08-10T16:28:48.584Z,23.70
2018-08-10T16:31:16.357Z,23.70
2018-08-10T16:33:44.083Z,23.80
2018-08-10T16:36:11.950Z,23.90
2018-08-10T16:38:39.619Z,24.00
2018-08-10T16:41:07.495Z,24.00
2018-08-10T16:43:35.208Z,24.10
2018-08-10T16:46:03.010Z,24.20
2018-08-10T16:48:30.753Z,24.20
2018-08-10T16:50:58.375Z,24.30
2018-08-10T16:53:26.115Z,24.30
2018-08-10T16:55:53.758Z,24.30
2018-08-10T16:58:21.607Z,24.20
2018-08-10T17:00:49.265Z,24.00
2018-08-10T17:03:16.944Z,23.80
2018-08-10T17:05:44.575Z,23.50
2018-08-10T17:08:12.464Z,23.40
2018-08-10T17:10:40.114Z,23.20
2018-08-10T17:13:14.496Z,23.10
2018-08-10T17:15:42.287Z,23.10
2018-08-10T17:18:10.083Z,23.00
2018-08-10T17:20:37.867Z,23.00
2018-08-10T17:23:05.895Z,22.90
2018-08-10T17:25:33.830Z,22.80
2018-08-10T17:28:01.502Z,22.80
2018-08-10T17:30:29.248Z,22.80
2018-08-10T17:32:56.971Z,22.80
2018-08-10T17:35:24.616Z,22.80
2018-08-10T17:37:52.241Z,22.70
2018-08-10T17:40:19.899Z,22.80
2018-08-10T17:42:47.621Z,22.80
2018-08-10T17:45:16.501Z,22.80
2018-08-10T17:47:44.269Z,22.80
2018-08-10T17:50:15.826Z,22.80
2018-08-10T17:52:45.108Z,22.90
2018-08-10T17:55:14.013Z,22.80
2018-08-10T17:57:41.764Z,22.80
2018-08-10T18:00:13.477Z,22.70
2018-08-10T18:02:41.165Z,22.60
2018-08-10T18:05:11.197Z,22.60
2018-08-10T18:07:39.162Z,22.50
2018-08-10T18:10:07.322Z,22.40
2018-08-10T18:12:35.212Z,22.30
2018-08-10T18:15:03.062Z,22.30
2018-08-10T18:17:30.783Z,22.20
2018-08-10T18:19:58.532Z,22.10
2018-08-10T18:22:26.181Z,22.00
2018-08-10T18:24:53.889Z,21.90
2018-08-10T18:27:21.579Z,21.80
2018-08-10T18:29:49.310Z,21.70
2018-08-10T18:32:17.011Z,21.70
2018-08-10T18:34:44.790Z,21.60
2018-08-10T18:37:12.572Z,21.50
2018-08-10T18:39:40.360Z,21.40
2018-08-10T18:42:08.012Z,21.40
2018-08-10T18:44:35.696Z,21.30
2018-08-10T18:47:03.484Z,21.20
2018-08-10T18:49:31.145Z,21.10
2018-08-10T18:51:58.896Z,21.10
2018-08-10T18:54:26.585Z,21.00
2018-08-10T18:56:54.618Z,20.90
2018-08-10T18:59:22.272Z,20.80
2018-08-10T19:01:49.951Z,20.80
2018-08-10T19:04:17.691Z,20.70
2018-08-10T19:06:45.344Z,20.60
2018-08-10T19:09:13.070Z,20.60
2018-08-10T19:11:40.782Z,20.60
2018-08-10T19:14:08.491Z,20.50
2018-08-10T19:16:36.152Z,20.50
2018-08-10T19:19:03.868Z,20.40
2018-08-10T19:21:31.546Z,20.40
2018-08-10T19:23:59.206Z,20.30
2018-08-10T19:26:26.891Z,20.30
2018-08-10T19:28:54.620Z,20.30
2018-08-10T19:31:22.279Z,20.30
2018-08-10T19:33:49.997Z,20.20
2018-08-10T19:36:17.655Z,20.20
2018-08-10T19:38:46.256Z,20.10
2018-08-10T19:41:14.020Z,20.10
2018-08-10T19:43:41.746Z,20.10
2018-08-10T19:46:09.481Z,20.10
2018-08-10T19:48:37.278Z,20.00
2018-08-10T19:51:04.976Z,20.10
2018-08-10T19:53:32.890Z,20.10
2018-08-10T19:56:00.746Z,20.00
2018-08-10T19:58:28.396Z,20.00
2018-08-10T20:00:56.056Z,20.00
2018-08-10T20:03:23.734Z,20.00
2018-08-10T20:05:51.464Z,19.90
2018-08-10T20:08:19.145Z,19.90
2018-08-10T20:10:46.901Z,19.80
2018-08-10T20:13:14.589Z,19.80
2018-08-10T20:15:42.346Z,19.70
2018-08-10T20:18:10.055Z,19.70
2018-08-10T20:20:37.744Z,19.70
2018-08-10T20:23:05.380Z,19.70
2018-08-10T20:25:33.091Z,19.60
2018-08-10T20:28:00.704Z,19.60
2018-08-10T20:30:28.403Z,19.60
2018-08-10T20:32:56.125Z,19.50
2018-08-10T20:35:23.824Z,19.40
2018-08-10T20:37:51.571Z,19.40
2018-08-10T20:40:20.014Z,19.40
2018-08-10T20:42:48.549Z,19.40
2018-08-10T20:45:17.352Z,19.30
2018-08-10T20:47:45.063Z,19.30
2018-08-10T20:50:14.767Z,19.20
2018-08-10T20:52:43.614Z,19.20
2018-08-10T20:55:11.690Z,19.10
2018-08-10T20:57:39.322Z,19.20
2018-08-10T21:00:08.290Z,19.10
2018-08-10T21:02:35.948Z,19.10
2018-08-10T21:05:04.262Z,19.10
2018-08-10T21:07:32.019Z,19.10
2018-08-10T21:09:59.665Z,19.00
2018-08-10T21:12:27.338Z,19.00
2018-08-10T21:14:55.050Z,19.00
2018-08-10T21:17:22.717Z,19.00
2018-08-10T21:19:50.343Z,19.00
2018-08-10T21:22:18.032Z,19.00
2018-08-10T21:24:45.704Z,19.00
2018-08-10T21:27:13.487Z,19.00
2018-08-10T21:29:41.231Z,19.00
2018-08-10T21:32:09.188Z,18.90
2018-08-10T21:34:36.832Z,18.90
2018-08-10T21:37:04.829Z,18.90
2018-08-10T21:39:32.522Z,18.90
2018-08-10T21:42:00.271Z,18.90
2018-08-10T21:44:27.924Z,19.00
2018-08-10T21:46:56.422Z,19.00
2018-08-10T21:49:24.128Z,19.10
2018-08-10T21:51:51.806Z,19.10
2018-08-10T21:54:19.452Z,19.10
2018-08-10T21:56:47.108Z,19.10
2018-08-10T21:59:14.760Z,19.10
2018-08-10T22:01:42.470Z,19.20
2018-08-10T22:04:10.174Z,19.20
2018-08-10T22:06:38.477Z,19.30
2018-08-10T22:09:07.178Z,19.30
2018-08-10T22:11:34.794Z,19.20
2018-08-10T22:14:08.125Z,19.20
2018-08-10T22:16:41.465Z,19.20
2018-08-10T22:19:13.201Z,19.10
2018-08-10T22:21:41.850Z,19.00
2018-08-10T22:24:09.638Z,18.90
2018-08-10T22:26:37.284Z,18.90
2018-08-10T22:29:05.053Z,18.90
2018-08-10T22:31:32.927Z,18.90
2018-08-10T22:34:00.971Z,18.80
2018-08-10T22:36:28.707Z,18.80
2018-08-10T22:38:56.709Z,18.80
2018-08-10T22:41:24.499Z,18.80
2018-08-10T22:43:52.174Z,18.80
2018-08-10T22:46:19.867Z,18.80
2018-08-10T22:48:47.537Z,18.80
2018-08-10T22:51:15.296Z,18.80
2018-08-10T22:53:42.927Z,18.80
2018-08-10T22:56:10.682Z,18.80
2018-08-10T22:58:38.378Z,18.80
2018-08-10T23:01:06.058Z,18.80
2018-08-10T23:03:33.699Z,18.80
2018-08-10T23:06:01.378Z,18.90
2018-08-10T23:08:29.113Z,18.90
2018-08-10T23:10:56.790Z,18.80
2018-08-10T23:13:24.473Z,18.80
2018-08-10T23:15:52.156Z,18.70
2018-08-10T23:18:19.784Z,18.70
2018-08-10T23:20:47.415Z,18.70
2018-08-10T23:23:15.088Z,18.60
2018-08-10T23:25:42.858Z,18.50
2018-08-10T23:28:10.493Z,18.50
2018-08-10T23:30:38.216Z,18.50
2018-08-10T23:33:05.832Z,18.40
2018-08-10T23:35:33.515Z,18.50
2018-08-10T23:38:01.191Z,18.50
2018-08-10T23:40:28.956Z,18.50
2018-08-10T23:42:56.635Z,18.50
2018-08-10T23:45:24.371Z,18.40
2018-08-10T23:47:52.184Z,18.40
2018-08-10T23:50:19.870Z,18.30
2018-08-10T23:52:47.560Z,18.30
2018-08-10T23:55:17.036Z,18.30
2018-08-10T23:57:44.734Z,18.30
